LS Concorde — ZDHJ7 — position and weather

sailwx.info

Track history (hours):
 
Tides and Currents Weather Stations Pressure Air Temp Water Temp Dewpoint Dewpoint Depression Visibility Wind Speed Wind Dir Waves Ship Positions

LS Concorde

Last reported at 2016-May-25 06:32 UTC. Time now 2016-May-25 07:15 UTC.
Position N 51°30' E 001°28'.

Length 99 m; draft 5.8 m.

Type: Tanker. MMSI: 236329000.

Date/timePositionNaut miles runAvg speedWind from/ knotsBaromVisibWave heightAir tempDewpointWater temp
2016-May-25 06:32N 51°30' E 001°28'0 0.0
2016-May-25 05:32N 51°30' E 001°28'0 0.0
2016-May-25 04:32N 51°30' E 001°28'0 0.0
2016-May-25 03:32N 51°30' E 001°28'0 0.1
2016-May-25 02:32N 51°30' E 001°28'0 0.0
2016-May-25 01:32N 51°30' E 001°28'0 0.0
2016-May-25 00:32N 51°30' E 001°28'0 0.0
2016-May-24 23:32N 51°30' E 001°28'0 0.0
2016-May-24 22:32N 51°30' E 001°28'0 0.0
2016-May-24 21:32N 51°30' E 001°28'0 0.0
2016-May-24 20:32N 51°30' E 001°28'0 0.0
2016-May-24 19:32N 51°30' E 001°28'0 0.1
2016-May-24 18:29N 51°30' E 001°28'0 0.1
2016-May-24 17:32N 51°30' E 001°28'0 0.0
2016-May-24 16:32N 51°30' E 001°28'0 0.0
2016-May-24 15:32N 51°30' E 001°28'0 0.1
2016-May-24 14:17N 51°30' E 001°28'0 0.0
2016-May-24 13:20N 51°30' E 001°28'0 0.0
2016-May-24 12:32N 51°30' E 001°28'0 0.0
2016-May-24 11:32N 51°30' E 001°28'0 0.0
2016-May-24 10:32N 51°30' E 001°28'0 0.0
2016-May-24 09:32N 51°30' E 001°28'0 0.0
2016-May-24 08:32N 51°30' E 001°28'0 0.1
2016-May-24 07:32N 51°30' E 001°28'0 0.1
2016-May-24 06:32N 51°30' E 001°28'0 0.0
2016-May-24 05:32N 51°30' E 001°28'0 0.0
2016-May-24 04:23N 51°30' E 001°28'0 0.0
2016-May-24 03:32N 51°30' E 001°28'0 0.0
2016-May-24 02:32N 51°30' E 001°28'0 0.1
2016-May-24 01:32N 51°30' E 001°28'0 0.0
2016-May-24 00:32N 51°30' E 001°28'0 0.0
2016-May-23 23:32N 51°30' E 001°28'0 0.0
2016-May-23 22:32N 51°30' E 001°28'0 0.0
2016-May-23 21:29N 51°30' E 001°28'0 0.0
2016-May-23 20:32N 51°30' E 001°28'0 0.0
2016-May-23 19:32N 51°30' E 001°28'0 0.1
2016-May-23 18:32N 51°30' E 001°28'0 0.0
2016-May-23 17:32N 51°30' E 001°28'0 0.0
2016-May-23 16:32N 51°30' E 001°28'0 0.0
2016-May-23 15:32N 51°30' E 001°28'0 0.0
2016-May-23 14:32N 51°30' E 001°28'0 0.1
2016-May-23 13:32N 51°30' E 001°28'0 0.0
2016-May-23 12:32N 51°30' E 001°28'0 0.0
2016-May-23 11:17N 51°30' E 001°28'0 0.0
2016-May-23 10:32N 51°30' E 001°28'0 0.0
2016-May-23 09:32N 51°30' E 001°28'0 0.0
2016-May-23 08:32N 51°30' E 001°28'0 0.1
2016-May-23 07:32N 51°30' E 001°28'0 0.0
2016-May-23 06:32N 51°30' E 001°28'1 0.8
2016-May-23 05:33N 51°30' E 001°30'0 0.0
2016-May-23 04:33N 51°30' E 001°30'0 0.1
2016-May-23 03:33N 51°30' E 001°30'1 0.8
2016-May-23 02:32N 51°30' E 001°29'0 0.1
2016-May-23 01:32N 51°30' E 001°28'0 0.0
2016-May-23 00:32N 51°30' E 001°28'0 0.0
2016-May-22 23:32N 51°30' E 001°28'0 0.0
2016-May-22 22:32N 51°30' E 001°28'0 0.0
2016-May-22 21:32N 51°30' E 001°28'0 0.0
2016-May-22 20:32N 51°30' E 001°28'0 0.0
2016-May-22 19:32N 51°30' E 001°28'0 0.1
2016-May-22 18:32N 51°30' E 001°29'0 0.0
2016-May-22 17:17N 51°30' E 001°29'0 0.0
2016-May-22 16:32N 51°30' E 001°29'0 0.0
2016-May-22 15:32N 51°30' E 001°29'0 0.0
2016-May-22 14:32N 51°30' E 001°29'0 0.1
2016-May-22 13:26N 51°30' E 001°28'0 0.0
2016-May-22 12:32N 51°30' E 001°28'0 0.1
2016-May-22 11:33N 51°30' E 001°28'1111.0
2016-May-22 10:33N 51°21' E 001°36'1211.6
2016-May-22 09:33N 51°09' E 001°35'1212.4
2016-May-22 08:33N 51°03' E 001°52'18 8.8
2016-May-22 06:32N 51°03' E 002°20'3 2.6
2016-May-22 05:33N 51°03' E 002°17'0 0.0
2016-May-22 04:30N 51°03' E 002°17'0 0.0
2016-May-22 03:33N 51°03' E 002°17'0 0.0
2016-May-22 02:33N 51°03' E 002°17'0 0.0
2016-May-22 01:33N 51°03' E 002°17'0 0.0
2016-May-22 00:21N 51°03' E 002°17'0 0.0
2016-May-21 23:15N 51°03' E 002°17'3 2.6
2016-May-21 22:04N 51°03' E 002°21'510.0
2016-May-21 21:33N 51°03' E 002°13'1312.7
2016-May-21 20:33N 51°02' E 001°53'1010.2
2016-May-21 19:33N 51°07' E 001°39'8 7.9
2016-May-21 18:33N 51°15' E 001°37'6 6.3
2016-May-21 17:33N 51°21' E 001°35'6 6.4
2016-May-21 16:33N 51°27' E 001°33'4 4.4
2016-May-21 15:33N 51°31' E 001°32'0 0.2
2016-May-21 14:33N 51°32' E 001°32'0 0.0
2016-May-21 13:33N 51°32' E 001°32'0 0.0
2016-May-21 12:33N 51°32' E 001°32'0 0.0
2016-May-21 11:33N 51°32' E 001°32'0 0.0
2016-May-21 10:33N 51°32' E 001°32'0 0.1
2016-May-21 09:33N 51°32' E 001°32'0 0.1
2016-May-21 08:33N 51°31' E 001°32'0 0.0
2016-May-21 07:27N 51°31' E 001°32'0 0.2
2016-May-21 06:30N 51°32' E 001°32'2 1.6
2016-May-21 05:31N 51°30' E 001°30'0 0.0
2016-May-21 04:31N 51°30' E 001°30'0 0.0
2016-May-21 03:31N 51°30' E 001°30'0 0.0
2016-May-21 02:31N 51°30' E 001°30'0 0.1
2016-May-21 01:31N 51°30' E 001°30'0 0.0
2016-May-21 00:31N 51°30' E 001°30'0 0.0
2016-May-20 23:31N 51°30' E 001°30'0 0.0
2016-May-20 22:31N 51°30' E 001°30'0 0.5
2016-May-20 21:31N 51°31' E 001°31'0 0.1
2016-May-20 20:31N 51°31' E 001°31'0 0.0
2016-May-20 19:31N 51°30' E 001°31'0 0.1
2016-May-20 18:31N 51°30' E 001°31'0 0.2
2016-May-20 17:25N 51°31' E 001°31'0 0.0
2016-May-20 16:31N 51°31' E 001°31'0 0.0
2016-May-20 15:31N 51°31' E 001°31'0 0.0
2016-May-20 14:28N 51°31' E 001°31'2 2.1
2016-May-20 13:33N 51°30' E 001°28'0 0.0
2016-May-20 12:33N 51°30' E 001°28'0 0.1
2016-May-20 11:33N 51°30' E 001°28'0 0.0
2016-May-20 10:33N 51°30' E 001°28'0 0.0
2016-May-20 09:33N 51°30' E 001°28'0 0.0
2016-May-20 08:30N 51°30' E 001°28'0 0.0
2016-May-20 07:33N 51°30' E 001°28'0 0.0
2016-May-20 06:33N 51°30' E 001°28'0 0.1
2016-May-20 04:33N 51°30' E 001°28'0 0.0
2016-May-20 03:33N 51°30' E 001°28'0 0.0
2016-May-20 02:33N 51°30' E 001°28'0 0.0
2016-May-20 01:33N 51°30' E 001°28'0 0.0
2016-May-20 00:30N 51°30' E 001°28'0 0.1
2016-May-19 23:33N 51°30' E 001°28'0 0.0
2016-May-19 22:33N 51°30' E 001°28'0 0.0
2016-May-19 21:30N 51°30' E 001°28'0 0.0
2016-May-19 20:30N 51°30' E 001°28'0 0.0
2016-May-19 19:18N 51°30' E 001°28'0 0.0
2016-May-19 18:33N 51°30' E 001°28'0 0.1
2016-May-19 17:33N 51°30' E 001°28'0 0.0
2016-May-19 16:33N 51°30' E 001°28'0 0.0
2016-May-19 15:33N 51°30' E 001°28'0 0.0
2016-May-19 14:33N 51°30' E 001°28'0 0.0
2016-May-19 13:33N 51°30' E 001°28'0 0.0
2016-May-19 12:33N 51°30' E 001°28'0 0.1
2016-May-19 11:33N 51°30' E 001°28'0 0.0
2016-May-19 10:30N 51°30' E 001°28'0 0.0
2016-May-19 09:33N 51°30' E 001°28'0 0.0
2016-May-19 08:33N 51°30' E 001°28'0 0.0
2016-May-19 07:33N 51°30' E 001°28'0 0.0
2016-May-19 06:33N 51°30' E 001°28'0 0.1
2016-May-19 05:33N 51°30' E 001°28'0 0.1
2016-May-19 04:33N 51°30' E 001°28'0 0.0
2016-May-19 03:33N 51°30' E 001°28'0 0.0
2016-May-19 02:15N 51°30' E 001°28'0 0.0
2016-May-19 01:24N 51°30' E 001°28'0 0.0
2016-May-19 00:33N 51°30' E 001°28'0 0.0
2016-May-18 23:33N 51°30' E 001°28'0 0.0
2016-May-18 22:33N 51°30' E 001°28'0 0.0
2016-May-18 21:33N 51°30' E 001°28'0 0.0
2016-May-18 20:33N 51°30' E 001°28'0 0.0
2016-May-18 19:18N 51°30' E 001°28'0 0.0
2016-May-18 18:33N 51°30' E 001°28'0 0.0
2016-May-18 17:33N 51°30' E 001°28'0 0.1
2016-May-18 16:33N 51°30' E 001°28'0 0.1
2016-May-18 15:30N 51°30' E 001°28'0 0.0
2016-May-18 14:33N 51°30' E 001°28'0 0.0
2016-May-18 13:30N 51°30' E 001°28'0 0.0
2016-May-18 12:33N 51°30' E 001°28'0 0.1
2016-May-18 11:33N 51°30' E 001°28'0 0.0
2016-May-18 10:33N 51°30' E 001°28'0 0.1
2016-May-18 09:33N 51°30' E 001°28'0 0.0
2016-May-18 08:33N 51°30' E 001°28'0 0.0
2016-May-18 07:33N 51°30' E 001°28'0 0.0
2016-May-18 06:33N 51°30' E 001°28'0 0.0
2016-May-18 05:33N 51°30' E 001°28'0 0.1
2016-May-18 04:30N 51°30' E 001°28'0 0.0
2016-May-18 03:33N 51°30' E 001°28'0 0.0
2016-May-18 02:33N 51°30' E 001°28'0 0.0
2016-May-18 01:33N 51°30' E 001°28'0 0.0
2016-May-18 00:33N 51°30' E 001°28'0 0.0
2016-May-17 23:33N 51°30' E 001°28'0 0.0
2016-May-17 22:33N 51°30' E 001°28'0 0.1
2016-May-17 21:33N 51°30' E 001°28'0 0.1
2016-May-17 20:33N 51°30' E 001°28'0 0.0
2016-May-17 19:33N 51°30' E 001°28'0 0.0
2016-May-17 18:27N 51°30' E 001°28'0 0.0
2016-May-17 17:33N 51°30' E 001°28'0 0.1
2016-May-17 16:27N 51°30' E 001°28'0 0.0
2016-May-17 15:33N 51°30' E 001°28'1 0.7
2016-May-17 14:33N 51°31' E 001°29'0 0.0
2016-May-17 13:33N 51°31' E 001°29'0 0.2
2016-May-17 12:33N 51°31' E 001°29'1 0.7
2016-May-17 11:25N 51°30' E 001°28'0 0.0
2016-May-17 10:31N 51°30' E 001°28'0 0.1
2016-May-17 09:31N 51°30' E 001°28'0 0.0
2016-May-17 08:31N 51°30' E 001°28'0 0.0
2016-May-17 07:25N 51°30' E 001°28'0 0.0
2016-May-17 06:31N 51°30' E 001°28'0 0.0
2016-May-17 05:28N 51°30' E 001°28'0 0.0
2016-May-17 04:31N 51°30' E 001°28'0 0.0
2016-May-17 03:31N 51°30' E 001°28'0 0.0
2016-May-17 02:25N 51°30' E 001°28'0 0.0
2016-May-17 01:25N 51°30' E 001°28'0 0.0
2016-May-17 00:31N 51°30' E 001°29'0 0.0
2016-May-16 23:31N 51°30' E 001°28'0 0.0
2016-May-16 22:31N 51°30' E 001°28'0 0.0
2016-May-16 21:31N 51°30' E 001°28'0 0.1
2016-May-16 20:31N 51°30' E 001°28'0 0.0
2016-May-16 19:31N 51°30' E 001°28'0 0.0
2016-May-16 18:31N 51°30' E 001°28'0 0.0
2016-May-16 17:31N 51°30' E 001°28'0 0.0
2016-May-16 16:31N 51°30' E 001°28'0 0.0
2016-May-16 15:31N 51°30' E 001°28'0 0.0
2016-May-16 14:31N 51°30' E 001°28'0 0.0
2016-May-16 13:31N 51°30' E 001°28'0 0.0
2016-May-16 12:13N 51°30' E 001°29'0 0.0
2016-May-16 11:31N 51°30' E 001°29'0 0.0
2016-May-16 10:31N 51°30' E 001°29'2 2.0
2016-May-16 09:31N 51°31' E 001°31'0 0.1
2016-May-16 08:31N 51°31' E 001°31'0 0.1
2016-May-16 07:31N 51°31' E 001°31'1 1.2
2016-May-16 06:33N 51°30' E 001°32'1 0.6
2016-May-16 05:33N 51°30' E 001°31'1 0.7
2016-May-16 04:32N 51°31' E 001°31'0 0.0
2016-May-16 03:32N 51°31' E 001°31'0 0.0
2016-May-16 02:33N 51°31' E 001°32'2 2.1
2016-May-16 01:33N 51°30' E 001°28'0 0.0
2016-May-16 00:33N 51°30' E 001°28'0 0.0
2016-May-15 23:33N 51°30' E 001°28'0 0.0
2016-May-15 22:33N 51°30' E 001°28'0 0.0
2016-May-15 21:33N 51°30' E 001°28'0 0.1
2016-May-15 20:33N 51°30' E 001°28'0 0.1
2016-May-15 19:33N 51°30' E 001°28'0 0.0
2016-May-15 18:30N 51°30' E 001°28'0 0.0
2016-May-15 17:30N 51°30' E 001°28'0 0.0
2016-May-15 16:33N 51°30' E 001°28'0 0.0
2016-May-15 15:30N 51°30' E 001°28'0 0.0
2016-May-15 14:33N 51°30' E 001°28'0 0.0
2016-May-15 13:33N 51°30' E 001°28'0 0.0
2016-May-15 12:33N 51°30' E 001°28'0 0.0
2016-May-15 11:30N 51°30' E 001°28'0 0.0
2016-May-15 10:33N 51°30' E 001°28'0 0.5
2016-May-15 09:33N 51°30' E 001°29'0 0.1
2016-May-15 08:31N 51°30' E 001°29'0 0.1
2016-May-15 07:33N 51°30' E 001°29'  
Track history (hours):
 
Tides and Currents Weather Stations Pressure Air Temp Water Temp Dewpoint Dewpoint Depression Visibility Wind Speed Wind Dir Waves Ship Positions

LS Concorde

Last reported at 2016-May-25 06:32 UTC. Time now 2016-May-25 07:15 UTC.
Position N 51°30' E 001°28'.

Length 99 m; draft 5.8 m.

Type: Tanker. MMSI: 236329000.

Date/timePositionNaut miles runAvg speedWind from/ knotsBaromVisibWave heightAir tempDewpointWater temp
2016-May-25 06:32N 51°30' E 001°28'0 0.0
2016-May-25 05:32N 51°30' E 001°28'0 0.0
2016-May-25 04:32N 51°30' E 001°28'0 0.0
2016-May-25 03:32N 51°30' E 001°28'0 0.1
2016-May-25 02:32N 51°30' E 001°28'0 0.0
2016-May-25 01:32N 51°30' E 001°28'0 0.0
2016-May-25 00:32N 51°30' E 001°28'0 0.0
2016-May-24 23:32N 51°30' E 001°28'0 0.0
2016-May-24 22:32N 51°30' E 001°28'0 0.0
2016-May-24 21:32N 51°30' E 001°28'0 0.0
2016-May-24 20:32N 51°30' E 001°28'0 0.0
2016-May-24 19:32N 51°30' E 001°28'0 0.1
2016-May-24 18:29N 51°30' E 001°28'0 0.1
2016-May-24 17:32N 51°30' E 001°28'0 0.0
2016-May-24 16:32N 51°30' E 001°28'0 0.0
2016-May-24 15:32N 51°30' E 001°28'0 0.1
2016-May-24 14:17N 51°30' E 001°28'0 0.0
2016-May-24 13:20N 51°30' E 001°28'0 0.0
2016-May-24 12:32N 51°30' E 001°28'0 0.0
2016-May-24 11:32N 51°30' E 001°28'0 0.0
2016-May-24 10:32N 51°30' E 001°28'0 0.0
2016-May-24 09:32N 51°30' E 001°28'0 0.0
2016-May-24 08:32N 51°30' E 001°28'0 0.1
2016-May-24 07:32N 51°30' E 001°28'0 0.1
2016-May-24 06:32N 51°30' E 001°28'0 0.0
2016-May-24 05:32N 51°30' E 001°28'0 0.0
2016-May-24 04:23N 51°30' E 001°28'0 0.0
2016-May-24 03:32N 51°30' E 001°28'0 0.0
2016-May-24 02:32N 51°30' E 001°28'0 0.1
2016-May-24 01:32N 51°30' E 001°28'0 0.0
2016-May-24 00:32N 51°30' E 001°28'0 0.0
2016-May-23 23:32N 51°30' E 001°28'0 0.0
2016-May-23 22:32N 51°30' E 001°28'0 0.0
2016-May-23 21:29N 51°30' E 001°28'0 0.0
2016-May-23 20:32N 51°30' E 001°28'0 0.0
2016-May-23 19:32N 51°30' E 001°28'0 0.1
2016-May-23 18:32N 51°30' E 001°28'0 0.0
2016-May-23 17:32N 51°30' E 001°28'0 0.0
2016-May-23 16:32N 51°30' E 001°28'0 0.0
2016-May-23 15:32N 51°30' E 001°28'0 0.0
2016-May-23 14:32N 51°30' E 001°28'0 0.1
2016-May-23 13:32N 51°30' E 001°28'0 0.0
2016-May-23 12:32N 51°30' E 001°28'0 0.0
2016-May-23 11:17N 51°30' E 001°28'0 0.0
2016-May-23 10:32N 51°30' E 001°28'0 0.0
2016-May-23 09:32N 51°30' E 001°28'0 0.0
2016-May-23 08:32N 51°30' E 001°28'0 0.1
2016-May-23 07:32N 51°30' E 001°28'0 0.0
2016-May-23 06:32N 51°30' E 001°28'1 0.8
2016-May-23 05:33N 51°30' E 001°30'0 0.0
2016-May-23 04:33N 51°30' E 001°30'0 0.1
2016-May-23 03:33N 51°30' E 001°30'1 0.8
2016-May-23 02:32N 51°30' E 001°29'0 0.1
2016-May-23 01:32N 51°30' E 001°28'0 0.0
2016-May-23 00:32N 51°30' E 001°28'0 0.0
2016-May-22 23:32N 51°30' E 001°28'0 0.0
2016-May-22 22:32N 51°30' E 001°28'0 0.0
2016-May-22 21:32N 51°30' E 001°28'0 0.0
2016-May-22 20:32N 51°30' E 001°28'0 0.0
2016-May-22 19:32N 51°30' E 001°28'0 0.1
2016-May-22 18:32N 51°30' E 001°29'0 0.0
2016-May-22 17:17N 51°30' E 001°29'0 0.0
2016-May-22 16:32N 51°30' E 001°29'0 0.0
2016-May-22 15:32N 51°30' E 001°29'0 0.0
2016-May-22 14:32N 51°30' E 001°29'0 0.1
2016-May-22 13:26N 51°30' E 001°28'0 0.0
2016-May-22 12:32N 51°30' E 001°28'0 0.1
2016-May-22 11:33N 51°30' E 001°28'1111.0
2016-May-22 10:33N 51°21' E 001°36'1211.6
2016-May-22 09:33N 51°09' E 001°35'1212.4
2016-May-22 08:33N 51°03' E 001°52'18 8.8
2016-May-22 06:32N 51°03' E 002°20'3 2.6
2016-May-22 05:33N 51°03' E 002°17'0 0.0
2016-May-22 04:30N 51°03' E 002°17'0 0.0
2016-May-22 03:33N 51°03' E 002°17'0 0.0
2016-May-22 02:33N 51°03' E 002°17'0 0.0
2016-May-22 01:33N 51°03' E 002°17'0 0.0
2016-May-22 00:21N 51°03' E 002°17'0 0.0
2016-May-21 23:15N 51°03' E 002°17'3 2.6
2016-May-21 22:04N 51°03' E 002°21'510.0
2016-May-21 21:33N 51°03' E 002°13'1312.7
2016-May-21 20:33N 51°02' E 001°53'1010.2
2016-May-21 19:33N 51°07' E 001°39'8 7.9
2016-May-21 18:33N 51°15' E 001°37'6 6.3
2016-May-21 17:33N 51°21' E 001°35'6 6.4
2016-May-21 16:33N 51°27' E 001°33'4 4.4
2016-May-21 15:33N 51°31' E 001°32'0 0.2
2016-May-21 14:33N 51°32' E 001°32'0 0.0
2016-May-21 13:33N 51°32' E 001°32'0 0.0
2016-May-21 12:33N 51°32' E 001°32'0 0.0
2016-May-21 11:33N 51°32' E 001°32'0 0.0
2016-May-21 10:33N 51°32' E 001°32'0 0.1
2016-May-21 09:33N 51°32' E 001°32'0 0.1
2016-May-21 08:33N 51°31' E 001°32'0 0.0
2016-May-21 07:27N 51°31' E 001°32'0 0.2
2016-May-21 06:30N 51°32' E 001°32'2 1.6
2016-May-21 05:31N 51°30' E 001°30'0 0.0
2016-May-21 04:31N 51°30' E 001°30'0 0.0
2016-May-21 03:31N 51°30' E 001°30'0 0.0
2016-May-21 02:31N 51°30' E 001°30'0 0.1
2016-May-21 01:31N 51°30' E 001°30'0 0.0
2016-May-21 00:31N 51°30' E 001°30'0 0.0
2016-May-20 23:31N 51°30' E 001°30'0 0.0
2016-May-20 22:31N 51°30' E 001°30'0 0.5
2016-May-20 21:31N 51°31' E 001°31'0 0.1
2016-May-20 20:31N 51°31' E 001°31'0 0.0
2016-May-20 19:31N 51°30' E 001°31'0 0.1
2016-May-20 18:31N 51°30' E 001°31'0 0.2
2016-May-20 17:25N 51°31' E 001°31'0 0.0
2016-May-20 16:31N 51°31' E 001°31'0 0.0
2016-May-20 15:31N 51°31' E 001°31'0 0.0
2016-May-20 14:28N 51°31' E 001°31'2 2.1
2016-May-20 13:33N 51°30' E 001°28'0 0.0
2016-May-20 12:33N 51°30' E 001°28'0 0.1
2016-May-20 11:33N 51°30' E 001°28'0 0.0
2016-May-20 10:33N 51°30' E 001°28'0 0.0
2016-May-20 09:33N 51°30' E 001°28'0 0.0
2016-May-20 08:30N 51°30' E 001°28'0 0.0
2016-May-20 07:33N 51°30' E 001°28'0 0.0
2016-May-20 06:33N 51°30' E 001°28'0 0.1
2016-May-20 04:33N 51°30' E 001°28'0 0.0
2016-May-20 03:33N 51°30' E 001°28'0 0.0
2016-May-20 02:33N 51°30' E 001°28'0 0.0
2016-May-20 01:33N 51°30' E 001°28'0 0.0
2016-May-20 00:30N 51°30' E 001°28'0 0.1
2016-May-19 23:33N 51°30' E 001°28'0 0.0
2016-May-19 22:33N 51°30' E 001°28'0 0.0
2016-May-19 21:30N 51°30' E 001°28'0 0.0
2016-May-19 20:30N 51°30' E 001°28'0 0.0
2016-May-19 19:18N 51°30' E 001°28'0 0.0
2016-May-19 18:33N 51°30' E 001°28'0 0.1
2016-May-19 17:33N 51°30' E 001°28'0 0.0
2016-May-19 16:33N 51°30' E 001°28'0 0.0
2016-May-19 15:33N 51°30' E 001°28'0 0.0
2016-May-19 14:33N 51°30' E 001°28'0 0.0
2016-May-19 13:33N 51°30' E 001°28'0 0.0
2016-May-19 12:33N 51°30' E 001°28'0 0.1
2016-May-19 11:33N 51°30' E 001°28'0 0.0
2016-May-19 10:30N 51°30' E 001°28'0 0.0
2016-May-19 09:33N 51°30' E 001°28'0 0.0
2016-May-19 08:33N 51°30' E 001°28'0 0.0
2016-May-19 07:33N 51°30' E 001°28'0 0.0
2016-May-19 06:33N 51°30' E 001°28'0 0.1
2016-May-19 05:33N 51°30' E 001°28'0 0.1
2016-May-19 04:33N 51°30' E 001°28'0 0.0
2016-May-19 03:33N 51°30' E 001°28'0 0.0
2016-May-19 02:15N 51°30' E 001°28'0 0.0
2016-May-19 01:24N 51°30' E 001°28'0 0.0
2016-May-19 00:33N 51°30' E 001°28'0 0.0
2016-May-18 23:33N 51°30' E 001°28'0 0.0
2016-May-18 22:33N 51°30' E 001°28'0 0.0
2016-May-18 21:33N 51°30' E 001°28'0 0.0
2016-May-18 20:33N 51°30' E 001°28'0 0.0
2016-May-18 19:18N 51°30' E 001°28'0 0.0
2016-May-18 18:33N 51°30' E 001°28'0 0.0
2016-May-18 17:33N 51°30' E 001°28'0 0.1
2016-May-18 16:33N 51°30' E 001°28'0 0.1
2016-May-18 15:30N 51°30' E 001°28'0 0.0
2016-May-18 14:33N 51°30' E 001°28'0 0.0
2016-May-18 13:30N 51°30' E 001°28'0 0.0
2016-May-18 12:33N 51°30' E 001°28'0 0.1
2016-May-18 11:33N 51°30' E 001°28'0 0.0
2016-May-18 10:33N 51°30' E 001°28'0 0.1
2016-May-18 09:33N 51°30' E 001°28'0 0.0
2016-May-18 08:33N 51°30' E 001°28'0 0.0
2016-May-18 07:33N 51°30' E 001°28'0 0.0
2016-May-18 06:33N 51°30' E 001°28'0 0.0
2016-May-18 05:33N 51°30' E 001°28'0 0.1
2016-May-18 04:30N 51°30' E 001°28'0 0.0
2016-May-18 03:33N 51°30' E 001°28'0 0.0
2016-May-18 02:33N 51°30' E 001°28'0 0.0
2016-May-18 01:33N 51°30' E 001°28'0 0.0
2016-May-18 00:33N 51°30' E 001°28'0 0.0
2016-May-17 23:33N 51°30' E 001°28'0 0.0
2016-May-17 22:33N 51°30' E 001°28'0 0.1
2016-May-17 21:33N 51°30' E 001°28'0 0.1
2016-May-17 20:33N 51°30' E 001°28'0 0.0
2016-May-17 19:33N 51°30' E 001°28'0 0.0
2016-May-17 18:27N 51°30' E 001°28'0 0.0
2016-May-17 17:33N 51°30' E 001°28'0 0.1
2016-May-17 16:27N 51°30' E 001°28'0 0.0
2016-May-17 15:33N 51°30' E 001°28'1 0.7
2016-May-17 14:33N 51°31' E 001°29'0 0.0
2016-May-17 13:33N 51°31' E 001°29'0 0.2
2016-May-17 12:33N 51°31' E 001°29'1 0.7
2016-May-17 11:25N 51°30' E 001°28'0 0.0
2016-May-17 10:31N 51°30' E 001°28'0 0.1
2016-May-17 09:31N 51°30' E 001°28'0 0.0
2016-May-17 08:31N 51°30' E 001°28'0 0.0
2016-May-17 07:25N 51°30' E 001°28'0 0.0
2016-May-17 06:31N 51°30' E 001°28'0 0.0
2016-May-17 05:28N 51°30' E 001°28'0 0.0
2016-May-17 04:31N 51°30' E 001°28'0 0.0
2016-May-17 03:31N 51°30' E 001°28'0 0.0
2016-May-17 02:25N 51°30' E 001°28'0 0.0
2016-May-17 01:25N 51°30' E 001°28'0 0.0
2016-May-17 00:31N 51°30' E 001°29'0 0.0
2016-May-16 23:31N 51°30' E 001°28'0 0.0
2016-May-16 22:31N 51°30' E 001°28'0 0.0
2016-May-16 21:31N 51°30' E 001°28'0 0.1
2016-May-16 20:31N 51°30' E 001°28'0 0.0
2016-May-16 19:31N 51°30' E 001°28'0 0.0
2016-May-16 18:31N 51°30' E 001°28'0 0.0
2016-May-16 17:31N 51°30' E 001°28'0 0.0
2016-May-16 16:31N 51°30' E 001°28'0 0.0
2016-May-16 15:31N 51°30' E 001°28'0 0.0
2016-May-16 14:31N 51°30' E 001°28'0 0.0
2016-May-16 13:31N 51°30' E 001°28'0 0.0
2016-May-16 12:13N 51°30' E 001°29'0 0.0
2016-May-16 11:31N 51°30' E 001°29'0 0.0
2016-May-16 10:31N 51°30' E 001°29'2 2.0
2016-May-16 09:31N 51°31' E 001°31'0 0.1
2016-May-16 08:31N 51°31' E 001°31'0 0.1
2016-May-16 07:31N 51°31' E 001°31'1 1.2
2016-May-16 06:33N 51°30' E 001°32'1 0.6
2016-May-16 05:33N 51°30' E 001°31'1 0.7
2016-May-16 04:32N 51°31' E 001°31'0 0.0
2016-May-16 03:32N 51°31' E 001°31'0 0.0
2016-May-16 02:33N 51°31' E 001°32'2 2.1
2016-May-16 01:33N 51°30' E 001°28'0 0.0
2016-May-16 00:33N 51°30' E 001°28'0 0.0
2016-May-15 23:33N 51°30' E 001°28'0 0.0
2016-May-15 22:33N 51°30' E 001°28'0 0.0
2016-May-15 21:33N 51°30' E 001°28'0 0.1
2016-May-15 20:33N 51°30' E 001°28'0 0.1
2016-May-15 19:33N 51°30' E 001°28'0 0.0
2016-May-15 18:30N 51°30' E 001°28'0 0.0
2016-May-15 17:30N 51°30' E 001°28'0 0.0
2016-May-15 16:33N 51°30' E 001°28'0 0.0
2016-May-15 15:30N 51°30' E 001°28'0 0.0
2016-May-15 14:33N 51°30' E 001°28'0 0.0
2016-May-15 13:33N 51°30' E 001°28'0 0.0
2016-May-15 12:33N 51°30' E 001°28'0 0.0
2016-May-15 11:30N 51°30' E 001°28'0 0.0
2016-May-15 10:33N 51°30' E 001°28'0 0.5
2016-May-15 09:33N 51°30' E 001°29'0 0.1
2016-May-15 08:31N 51°30' E 001°29'0 0.1
2016-May-15 07:33N 51°30' E 001°29'  

Dump ship's entire track history